Time;durP1;ratioP1;P1;durP2;ratioP2;P2;SDS_P1;SDS_P2;PMS_P1;PMS_P2;Temp;Humidity;BMP_temperature;BMP_pressure;BME280_temperature;BME280_humidity;BME280_pressure;Samples;Min_cycle;Max_cycle;Signal;HPM_P1;HPM_P2
2021/06/09 00:00:08;;;;;;;5.77;3.63;;;14.10;99.90;;;;;;5089713;29;20217;-68
2021/06/09 00:02:40;;;;;;;5.77;3.57;;;14.10;99.90;;;;;;5089533;29;20202;-71
2021/06/09 00:05:12;;;;;;;9.37;3.97;;;14.00;99.90;;;;;;5073157;29;20215;-69
2021/06/09 00:07:44;;;;;;;7.40;3.83;;;14.00;99.90;;;;;;5089350;29;20214;-70
2021/06/09 00:10:17;;;;;;;7.47;3.93;;;14.00;99.90;;;;;;5089349;29;20214;-71
2021/06/09 00:12:48;;;;;;;6.80;3.47;;;14.00;99.90;;;;;;5089822;29;20224;-69
2021/06/09 00:15:20;;;;;;;4.87;3.67;;;13.90;99.90;;;;;;5090277;29;20241;-70
2021/06/09 00:17:52;;;;;;;6.83;4.03;;;13.90;99.90;;;;;;5090459;29;20212;-71
2021/06/09 00:20:27;;;;;;;6.33;4.23;;;13.80;99.90;;;;;;5090290;29;20301;-71
2021/06/09 00:22:59;;;;;;;4.23;3.17;;;13.80;99.90;;;;;;5090280;29;20206;-71
2021/06/09 00:25:35;;;;;;;7.83;3.83;;;13.70;99.90;;;;;;5090370;29;20653;-71
2021/06/09 00:28:07;;;;;;;4.57;3.17;;;13.60;99.90;;;;;;5089024;29;20210;-71
2021/06/09 00:30:40;;;;;;;6.73;4.03;;;13.60;99.90;;;;;;5089232;29;20210;-72
2021/06/09 00:33:12;;;;;;;5.37;3.50;;;13.50;99.90;;;;;;5089493;29;20648;-71
2021/06/09 00:35:44;;;;;;;5.80;3.40;;;13.50;99.90;;;;;;5089224;29;20234;-74
2021/06/09 00:38:16;;;;;;;6.33;3.70;;;13.50;99.90;;;;;;5089261;29;20579;-74
2021/06/09 00:40:50;;;;;;;3.87;3.33;;;13.50;99.90;;;;;;5088269;29;20206;-71
2021/06/09 00:43:26;;;;;;;5.47;3.50;;;13.40;99.90;;;;;;5071735;29;20213;-72
2021/06/09 00:46:08;;;;;;;4.60;3.33;;;13.40;99.90;;;;;;5088333;29;20552;-73
2021/06/09 00:48:43;;;;;;;6.37;3.53;;;13.40;99.90;;;;;;5088018;29;20664;-69
2021/06/09 00:51:17;;;;;;;4.47;3.10;;;13.40;99.90;;;;;;5088704;29;20556;-70
2021/06/09 00:53:51;;;;;;;4.27;3.50;;;13.30;99.90;;;;;;5088159;29;20217;-73
2021/06/09 00:56:24;;;;;;;5.90;3.60;;;13.30;99.90;;;;;;5088232;29;20665;-68
2021/06/09 00:58:56;;;;;;;6.10;4.03;;;13.30;99.90;;;;;;5088512;29;20203;-74
2021/06/09 01:01:29;;;;;;;5.17;3.93;;;13.30;99.90;;;;;;5088331;29;20607;-72
2021/06/09 01:04:02;;;;;;;6.07;3.77;;;13.30;99.90;;;;;;5088414;29;20578;-75
2021/06/09 01:06:34;;;;;;;8.10;4.67;;;13.20;99.90;;;;;;5088124;29;20209;-67
2021/06/09 01:09:07;;;;;;;6.70;4.50;;;13.20;99.90;;;;;;5087810;29;20234;-68
2021/06/09 01:11:39;;;;;;;5.40;4.40;;;13.20;99.90;;;;;;5088311;29;20214;-68
2021/06/09 01:14:11;;;;;;;7.30;4.97;;;13.20;99.90;;;;;;5087809;29;20292;-71
2021/06/09 01:16:43;;;;;;;6.30;4.30;;;13.10;99.90;;;;;;5087916;29;20568;-70
2021/06/09 01:19:16;;;;;;;6.77;4.40;;;13.10;99.90;;;;;;5088835;29;20692;-74
2021/06/09 01:21:49;;;;;;;6.83;4.37;;;13.10;99.90;;;;;;5088254;29;20670;-71
2021/06/09 01:24:21;;;;;;;7.40;4.70;;;13.10;99.90;;;;;;5087607;29;20209;-67
2021/06/09 01:26:53;;;;;;;7.23;5.13;;;13.10;99.90;;;;;;5087995;29;20213;-68
2021/06/09 01:29:26;;;;;;;7.93;4.73;;;13.10;99.90;;;;;;5088247;29;20601;-69
2021/06/09 01:31:58;;;;;;;6.83;4.50;;;13.00;99.90;;;;;;5088010;29;20652;-74
2021/06/09 01:34:30;;;;;;;6.47;4.90;;;13.00;99.90;;;;;;5087786;29;20285;-72
2021/06/09 01:37:02;;;;;;;7.97;4.73;;;13.00;99.90;;;;;;5088018;29;20210;-73
2021/06/09 01:39:34;;;;;;;9.40;5.10;;;13.00;99.90;;;;;;5087982;29;20217;-70
2021/06/09 01:42:06;;;;;;;8.87;4.97;;;12.90;99.90;;;;;;5088607;29;20581;-67
2021/06/09 01:44:39;;;;;;;6.37;4.70;;;12.90;99.90;;;;;;5087664;29;20206;-74
2021/06/09 01:47:11;;;;;;;7.23;5.30;;;12.90;99.90;;;;;;5087542;29;20219;-71
2021/06/09 01:49:43;;;;;;;7.13;4.90;;;12.80;99.90;;;;;;5087890;29;20246;-69
2021/06/09 01:52:18;;;;;;;7.53;5.00;;;12.80;99.90;;;;;;5087702;29;20211;-68
2021/06/09 01:54:50;;;;;;;9.63;5.93;;;12.80;99.90;;;;;;5087437;29;20618;-66
2021/06/09 01:57:22;;;;;;;9.30;5.63;;;12.80;99.90;;;;;;5087433;29;20699;-68
2021/06/09 01:59:54;;;;;;;7.30;5.67;;;12.80;99.90;;;;;;5089181;29;20214;-72
2021/06/09 02:02:27;;;;;;;10.77;6.40;;;12.70;99.90;;;;;;5088111;29;20214;-69
2021/06/09 02:04:59;;;;;;;9.17;6.53;;;12.70;99.90;;;;;;5090834;29;20214;-72
2021/06/09 02:07:39;;;;;;;8.23;6.00;;;12.70;99.90;;;;;;5089911;29;20229;-71
2021/06/09 02:10:15;;;;;;;8.33;5.60;;;12.70;99.90;;;;;;5089022;29;20658;-73
2021/06/09 02:12:50;;;;;;;10.10;5.73;;;12.60;99.90;;;;;;5089119;29;20210;-70
2021/06/09 02:15:24;;;;;;;10.00;5.80;;;12.60;99.90;;;;;;5088780;29;20720;-70
2021/06/09 02:18:17;;;;;;;9.33;5.37;;;12.60;99.90;;;;;;5088827;29;20207;-73
2021/06/09 02:20:56;;;;;;;7.00;5.33;;;12.60;99.90;;;;;;5088385;29;20217;-70
2021/06/09 02:23:34;;;;;;;7.10;5.73;;;12.60;99.90;;;;;;5088806;29;20654;-72
2021/06/09 02:26:06;;;;;;;10.63;6.50;;;12.60;99.90;;;;;;5087656;29;20586;-68
2021/06/09 02:28:41;;;;;;;9.03;6.13;;;12.60;99.90;;;;;;5086964;29;20210;-71
2021/06/09 02:31:16;;;;;;;8.53;6.40;;;12.60;99.90;;;;;;5086832;29;20602;-70
2021/06/09 02:33:48;;;;;;;7.57;6.13;;;12.50;99.90;;;;;;5086829;29;20205;-70
2021/06/09 02:36:20;;;;;;;7.90;5.73;;;12.60;99.90;;;;;;5086829;29;20253;-67
2021/06/09 02:38:53;;;;;;;9.07;6.40;;;12.60;99.90;;;;;;5087023;29;20210;-72
2021/06/09 02:41:25;;;;;;;9.90;6.40;;;12.60;99.90;;;;;;5086984;29;20218;-70
2021/06/09 02:43:58;;;;;;;10.30;6.90;;;12.60;99.90;;;;;;5087138;29;20213;-69
2021/06/09 02:46:35;;;;;;;9.17;6.47;;;12.60;99.90;;;;;;5086757;29;20548;-67
2021/06/09 02:49:12;;;;;;;9.30;6.30;;;12.60;99.90;;;;;;5086969;29;20247;-68
2021/06/09 02:52:07;;;;;;;8.80;6.20;;;12.60;99.90;;;;;;5087258;29;20213;-71
2021/06/09 02:55:00;;;;;;;10.27;6.63;;;12.60;99.90;;;;;;5090151;29;20236;-68
2021/06/09 02:57:46;;;;;;;8.33;6.50;;;12.60;99.90;;;;;;5090543;29;20217;-68
2021/06/09 03:00:46;;;;;;;10.80;6.10;;;12.60;99.90;;;;;;5090490;29;20248;-69
2021/06/09 03:03:51;;;;;;;9.27;5.97;;;12.60;99.90;;;;;;5090155;29;20650;-67
2021/06/09 03:06:29;;;;;;;10.13;6.63;;;12.60;99.90;;;;;;5011091;29;20213;-68
2021/06/09 03:09:10;;;;;;;8.43;6.53;;;12.70;99.90;;;;;;5010907;29;20617;-69
2021/06/09 03:11:53;;;;;;;8.80;6.70;;;12.70;99.90;;;;;;5011092;29;20241;-66
2021/06/09 03:17:31;;;;;;;11.77;6.97;;;12.70;99.90;;;;;;5010481;29;20313;-67
2021/06/09 03:20:28;;;;;;;12.57;6.03;;;12.80;99.90;;;;;;5010623;29;20232;-69
2021/06/09 03:23:36;;;;;;;9.53;6.37;;;12.80;99.90;;;;;;5010575;29;20211;-67
2021/06/09 03:26:23;;;;;;;10.57;7.20;;;12.80;99.90;;;;;;4954122;29;20218;-68
2021/06/09 03:29:07;;;;;;;9.60;7.40;;;12.90;99.90;;;;;;4954305;30;20670;-68
2021/06/09 03:31:45;;;;;;;12.73;7.30;;;12.90;99.90;;;;;;4939024;30;20211;-71
2021/06/09 03:34:23;;;;;;;10.47;6.43;;;12.90;99.90;;;;;;4953966;30;20218;-70
2021/06/09 03:36:59;;;;;;;10.53;7.90;;;13.00;99.90;;;;;;4953981;30;20317;-69
2021/06/09 03:39:32;;;;;;;10.30;6.67;;;13.00;99.90;;;;;;4953773;30;20215;-70
2021/06/09 03:42:09;;;;;;;10.00;7.00;;;13.00;99.90;;;;;;4953736;29;20219;-69
2021/06/09 03:44:49;;;;;;;8.90;5.97;;;13.10;99.90;;;;;;5010425;29;20591;-69
2021/06/09 03:47:22;;;;;;;8.97;6.67;;;13.10;99.90;;;;;;5009658;29;20209;-69
2021/06/09 03:49:55;;;;;;;7.50;5.97;;;13.20;99.90;;;;;;5009999;29;20229;-66
2021/06/09 03:52:28;;;;;;;9.20;6.83;;;13.20;99.90;;;;;;5010048;29;20217;-67
2021/06/09 03:55:01;;;;;;;11.80;7.30;;;13.30;99.90;;;;;;5009756;29;20236;-67
2021/06/09 03:57:33;;;;;;;11.43;7.20;;;13.30;99.90;;;;;;5010098;29;20217;-67
2021/06/09 04:00:07;;;;;;;11.47;7.57;;;13.40;99.90;;;;;;5009954;29;20217;-67
2021/06/09 04:02:44;;;;;;;11.83;8.10;;;13.40;99.90;;;;;;5052854;29;20206;-69
2021/06/09 04:05:17;;;;;;;11.27;7.23;;;13.50;99.90;;;;;;5089054;29;20213;-71
2021/06/09 04:07:50;;;;;;;11.33;7.90;;;13.50;99.90;;;;;;5072159;29;20210;-67
2021/06/09 04:10:23;;;;;;;11.40;8.13;;;13.60;99.90;;;;;;5088841;29;20214;-68
2021/06/09 04:12:56;;;;;;;10.87;7.80;;;13.60;99.90;;;;;;5072344;29;20213;-67
2021/06/09 04:15:29;;;;;;;15.17;8.40;;;13.70;99.90;;;;;;5088588;29;20230;-68
2021/06/09 04:18:02;;;;;;;14.43;8.50;;;13.70;99.90;;;;;;5088695;29;20221;-69
2021/06/09 04:20:35;;;;;;;11.63;7.97;;;13.70;99.90;;;;;;5088607;29;20579;-69
2021/06/09 04:23:10;;;;;;;10.50;7.50;;;13.80;99.90;;;;;;5088418;29;20202;-69
2021/06/09 04:25:42;;;;;;;12.23;7.13;;;13.80;99.90;;;;;;5089034;29;20210;-66
2021/06/09 04:28:19;;;;;;;11.67;7.57;;;13.90;99.90;;;;;;5088725;29;20664;-69
2021/06/09 04:30:52;;;;;;;11.57;7.40;;;13.90;99.90;;;;;;5088629;29;20217;-69
2021/06/09 04:33:29;;;;;;;13.00;8.00;;;13.90;99.90;;;;;;5088374;29;20202;-68
2021/06/09 04:36:01;;;;;;;14.80;7.63;;;14.00;99.90;;;;;;5088315;29;20712;-67
2021/06/09 04:38:33;;;;;;;12.57;8.53;;;14.10;99.90;;;;;;5071525;29;20214;-68
2021/06/09 04:41:05;;;;;;;9.23;7.30;;;14.10;99.90;;;;;;5088423;29;20210;-68
2021/06/09 04:43:37;;;;;;;14.23;7.83;;;14.20;99.90;;;;;;5088365;29;20677;-68
2021/06/09 04:46:09;;;;;;;11.77;7.17;;;14.30;99.90;;;;;;5088154;29;20218;-67
2021/06/09 04:48:41;;;;;;;14.20;8.10;;;14.30;99.90;;;;;;5088535;29;20238;-68
2021/06/09 04:51:13;;;;;;;15.63;7.93;;;14.40;99.90;;;;;;5088077;29;20677;-69
2021/06/09 04:53:45;;;;;;;11.93;6.60;;;14.40;99.90;;;;;;5088219;29;20214;-68
2021/06/09 04:56:16;;;;;;;12.67;7.43;;;14.50;99.90;;;;;;5087613;29;20234;-69
2021/06/09 04:58:49;;;;;;;12.27;7.23;;;14.60;99.90;;;;;;5088059;29;20210;-72
2021/06/09 05:01:21;;;;;;;12.43;6.67;;;14.70;99.90;;;;;;5087855;29;20214;-69
2021/06/09 05:03:53;;;;;;;10.57;6.90;;;14.80;99.90;;;;;;5087976;29;20252;-68
2021/06/09 05:06:26;;;;;;;10.23;6.90;;;14.90;99.90;;;;;;5088208;29;20571;-71
2021/06/09 05:08:58;;;;;;;14.47;6.70;;;15.00;99.90;;;;;;5087932;29;20213;-69
2021/06/09 05:12:10;;;;;;;11.50;6.10;;;15.00;99.90;;;;;;5087961;29;20567;-74
2021/06/09 05:14:50;;;;;;;13.07;6.80;;;15.10;99.90;;;;;;5007887;29;20265;-73
2021/06/09 05:17:27;;;;;;;11.03;6.53;;;15.20;99.90;;;;;;5008207;29;20325;-75
2021/06/09 05:20:01;;;;;;;9.60;5.90;;;15.30;99.90;;;;;;5008478;29;20256;-74
2021/06/09 05:23:08;;;;;;;11.40;5.93;;;15.40;99.90;;;;;;5008328;29;20216;-72
2021/06/09 05:25:41;;;;;;;9.63;5.27;;;15.50;99.90;;;;;;4974575;29;20228;-73
2021/06/09 05:28:15;;;;;;;8.30;5.87;;;15.60;99.90;;;;;;4989268;29;20210;-74
2021/06/09 05:30:49;;;;;;;9.60;5.13;;;15.70;99.90;;;;;;4974300;29;20228;-73
2021/06/09 05:33:22;;;;;;;13.53;5.80;;;15.80;99.90;;;;;;4989569;29;20244;-78
2021/06/09 05:35:55;;;;;;;11.65;5.43;;;15.90;99.90;;;;;;4989446;29;20237;-72
2021/06/09 05:38:28;;;;;;;10.13;4.60;;;16.00;99.90;;;;;;4989107;29;20209;-73
2021/06/09 05:41:00;;;;;;;8.10;4.38;;;16.80;99.90;;;;;;4988665;29;20611;-74
2021/06/09 05:43:33;;;;;;;11.25;3.75;;;18.80;99.90;;;;;;4989334;29;20274;-84
2021/06/09 05:46:06;;;;;;;6.93;3.20;;;21.40;99.90;;;;;;4985869;29;20210;-73
2021/06/09 05:48:40;;;;;;;9.93;3.08;;;23.80;99.90;;;;;;4985128;29;20611;-73
2021/06/09 05:51:14;;;;;;;8.90;2.60;;;25.70;99.90;;;;;;4997980;29;20227;-72
2021/06/09 05:53:54;;;;;;;5.63;2.80;;;27.40;99.90;;;;;;5013379;29;20206;-73
2021/06/09 05:56:27;;;;;;;6.38;2.80;;;29.10;99.90;;;;;;5023153;29;20232;-74
2021/06/09 05:58:59;;;;;;;7.22;2.30;;;29.70;96.10;;;;;;5026135;29;20210;-72
2021/06/09 06:01:31;;;;;;;7.85;2.40;;;30.20;94.20;;;;;;5062398;29;20254;-73
2021/06/09 06:04:03;;;;;;;5.60;2.10;;;30.80;91.70;;;;;;5084788;29;20658;-73
2021/06/09 06:06:37;;;;;;;8.35;2.50;;;31.70;89.40;;;;;;5087013;29;20202;-74
2021/06/09 06:09:09;;;;;;;4.35;1.90;;;32.10;86.30;;;;;;5086923;29;20589;-70
2021/06/09 06:11:43;;;;;;;7.10;1.90;;;32.60;81.80;;;;;;5086421;29;20677;-74
2021/06/09 06:14:15;;;;;;;5.82;1.80;;;32.50;78.20;;;;;;5085833;29;20658;-70
2021/06/09 06:16:55;;;;;;;4.60;2.00;;;32.10;76.70;;;;;;5086375;29;20240;-69
2021/06/09 06:19:36;;;;;;;6.63;1.80;;;31.70;76.40;;;;;;5087066;29;20613;-69
2021/06/09 06:22:10;;;;;;;6.88;2.20;;;31.90;76.40;;;;;;5086425;29;20194;-69
2021/06/09 06:24:44;;;;;;;6.22;2.10;;;31.80;75.50;;;;;;5085965;29;20226;-70
2021/06/09 06:27:19;;;;;;;3.10;1.50;;;32.10;73.90;;;;;;5089238;29;20220;-71
2021/06/09 06:29:51;;;;;;;6.93;2.10;;;32.10;74.00;;;;;;5090287;29;20213;-70
2021/06/09 06:32:25;;;;;;;3.38;1.80;;;32.60;73.40;;;;;;5090146;29;20665;-71
2021/06/09 06:34:58;;;;;;;4.80;2.08;;;32.90;71.00;;;;;;5090092;29;20261;-72
2021/06/09 06:37:31;;;;;;;7.80;2.20;;;33.10;70.60;;;;;;5090466;29;20209;-70
2021/06/09 06:40:04;;;;;;;7.28;2.30;;;32.80;69.70;;;;;;5090158;29;20295;-69
2021/06/09 06:42:37;;;;;;;5.20;2.30;;;32.70;69.00;;;;;;5090161;29;20210;-71
2021/06/09 06:45:09;;;;;;;3.90;1.55;;;32.30;70.50;;;;;;5089808;29;20826;-71
2021/06/09 06:47:41;;;;;;;4.65;2.33;;;32.50;70.30;;;;;;5089952;29;20602;-70
2021/06/09 06:50:14;;;;;;;5.32;1.85;;;32.50;69.80;;;;;;5090057;29;20209;-69
2021/06/09 06:52:47;;;;;;;6.22;1.98;;;32.80;69.10;;;;;;5090043;29;20198;-71
2021/06/09 06:55:22;;;;;;;4.88;2.28;;;32.80;67.60;;;;;;5087862;29;20206;-70
2021/06/09 06:57:55;;;;;;;8.73;2.35;;;32.30;67.70;;;;;;5089892;29;20216;-67
2021/06/09 07:00:27;;;;;;;4.93;2.03;;;31.50;68.20;;;;;;5089609;29;20213;-68
2021/06/09 07:03:00;;;;;;;4.43;2.28;;;29.90;71.70;;;;;;5089360;29;20246;-68
2021/06/09 07:05:33;;;;;;;5.13;2.13;;;29.80;72.20;;;;;;5089446;29;20229;-65
2021/06/09 07:08:05;;;;;;;7.07;2.38;;;30.00;72.30;;;;;;5089663;29;20564;-67
2021/06/09 07:10:37;;;;;;;5.88;2.25;;;29.90;71.60;;;;;;5089314;29;20210;-70
2021/06/09 07:13:09;;;;;;;6.03;1.83;;;29.90;72.30;;;;;;5089065;29;20669;-50
2021/06/09 07:15:42;;;;;;;5.85;2.15;;;29.80;71.50;;;;;;5071918;29;20301;-61
2021/06/09 07:18:15;;;;;;;6.03;2.33;;;29.80;72.90;;;;;;5103532;29;20221;-69
2021/06/09 07:20:47;;;;;;;10.48;2.25;;;29.20;73.40;;;;;;5108905;29;20209;-50
2021/06/09 07:23:19;;;;;;;4.78;2.55;;;27.70;74.10;;;;;;5109110;29;20205;-52
2021/06/09 07:25:52;;;;;;;6.43;2.50;;;26.40;77.00;;;;;;5108321;29;20221;-52
2021/06/09 07:28:26;;;;;;;4.85;2.63;;;25.60;81.40;;;;;;5108957;29;20584;-51
2021/06/09 07:31:00;;;;;;;5.82;2.63;;;25.30;82.60;;;;;;5108787;29;20198;-46
2021/06/09 07:33:32;;;;;;;7.10;2.60;;;25.10;83.30;;;;;;5108318;29;20201;-49
2021/06/09 07:36:07;;;;;;;5.45;2.30;;;24.30;83.70;;;;;;5091438;29;20253;-66
2021/06/09 07:38:45;;;;;;;5.65;2.90;;;24.20;86.50;;;;;;5107727;29;20193;-47
2021/06/09 07:41:19;;;;;;;7.30;2.63;;;24.20;86.30;;;;;;5094382;29;20202;-51
2021/06/09 07:43:52;;;;;;;4.43;2.35;;;24.00;85.20;;;;;;5087924;29;20228;-48
2021/06/09 07:46:27;;;;;;;7.13;2.85;;;24.00;87.30;;;;;;5088596;29;20202;-48
2021/06/09 07:49:03;;;;;;;3.55;2.50;;;24.00;85.60;;;;;;5088748;29;20237;-46
2021/06/09 07:51:36;;;;;;;3.75;2.75;;;24.20;87.50;;;;;;5088755;29;20198;-44
2021/06/09 07:54:10;;;;;;;6.93;2.95;;;24.20;87.90;;;;;;5088869;29;20195;-55
2021/06/09 07:56:44;;;;;;;7.90;2.53;;;24.20;88.20;;;;;;5088610;29;20218;-54
2021/06/09 07:59:19;;;;;;;4.00;2.70;;;24.20;87.10;;;;;;5072120;29;20329;-53
2021/06/09 08:01:51;;;;;;;6.40;2.45;;;24.20;85.50;;;;;;5088598;29;20543;-57
2021/06/09 08:04:23;;;;;;;7.72;2.60;;;24.20;85.60;;;;;;5088452;29;20237;-56
2021/06/09 08:06:56;;;;;;;10.68;3.03;;;24.10;85.80;;;;;;5071739;29;20287;-56
2021/06/09 08:09:30;;;;;;;8.55;2.53;;;24.30;85.10;;;;;;5088544;29;20198;-56
2021/06/09 08:12:05;;;;;;;3.05;2.38;;;24.50;87.30;;;;;;5088816;29;20198;-56
2021/06/09 08:14:38;;;;;;;4.53;2.22;;;24.70;86.70;;;;;;5088267;29;20194;-62
2021/06/09 08:17:10;;;;;;;6.05;2.00;;;24.80;85.20;;;;;;5088559;29;20222;-52
2021/06/09 08:19:42;;;;;;;8.65;2.03;;;24.90;83.70;;;;;;5088713;29;20198;-59
2021/06/09 08:22:14;;;;;;;7.20;2.38;;;25.10;83.50;;;;;;5088405;29;20245;-53
2021/06/09 08:24:46;;;;;;;8.63;2.42;;;25.10;82.70;;;;;;5088672;29;20198;-58
2021/06/09 08:27:18;;;;;;;4.65;2.22;;;25.30;83.80;;;;;;5088544;29;20203;-57
2021/06/09 08:29:50;;;;;;;5.82;2.50;;;25.20;83.70;;;;;;5088497;29;20581;-60
2021/06/09 08:32:21;;;;;;;5.13;2.00;;;25.10;82.60;;;;;;5087586;29;20210;-54
2021/06/09 08:34:54;;;;;;;4.68;2.30;;;24.60;83.00;;;;;;5071390;29;20211;-57
2021/06/09 08:37:27;;;;;;;4.35;2.42;;;24.30;85.00;;;;;;5088139;29;20222;-57
2021/06/09 08:40:00;;;;;;;8.02;2.40;;;24.40;84.30;;;;;;5088224;29;20206;-59
2021/06/09 08:42:34;;;;;;;6.30;2.17;;;23.70;85.40;;;;;;5087770;29;20658;-52
2021/06/09 08:45:09;;;;;;;3.80;2.00;;;23.60;86.40;;;;;;5071255;29;20729;-63
2021/06/09 08:47:41;;;;;;;3.17;2.00;;;23.20;86.40;;;;;;5087652;29;20567;-67
2021/06/09 08:50:13;;;;;;;6.97;2.30;;;23.30;86.20;;;;;;5087154;29;20198;-59
2021/06/09 08:52:48;;;;;;;6.70;2.65;;;23.60;88.90;;;;;;5088050;29;20221;-56
2021/06/09 08:55:21;;;;;;;3.85;2.65;;;23.60;89.70;;;;;;5087746;29;20240;-52
2021/06/09 08:57:54;;;;;;;4.47;3.10;;;23.70;90.10;;;;;;5087638;29;20213;-58
2021/06/09 09:00:26;;;;;;;5.07;2.33;;;23.90;87.80;;;;;;5087767;29;20194;-59
2021/06/09 09:02:59;;;;;;;3.97;2.60;;;23.80;86.10;;;;;;5087899;29;20533;-58
2021/06/09 09:05:31;;;;;;;7.15;2.30;;;23.90;87.40;;;;;;5089573;29;20194;-67
2021/06/09 09:08:05;;;;;;;8.00;2.38;;;24.00;85.70;;;;;;5071978;29;20625;-61
2021/06/09 09:10:37;;;;;;;7.38;3.25;;;24.30;87.10;;;;;;5071023;29;20319;-57
2021/06/09 09:13:09;;;;;;;7.10;2.67;;;24.40;84.70;;;;;;5070951;29;20661;-53
2021/06/09 09:15:41;;;;;;;6.50;2.58;;;24.20;83.20;;;;;;5088018;29;20202;-59
2021/06/09 09:18:13;;;;;;;6.82;2.42;;;23.60;84.80;;;;;;5088057;29;20226;-59
2021/06/09 09:20:47;;;;;;;6.82;2.80;;;23.40;86.10;;;;;;5087450;29;20210;-60
2021/06/09 09:23:31;;;;;;;4.93;3.00;;;23.40;86.10;;;;;;5087464;29;20568;-59
2021/06/09 09:26:28;;;;;;;4.22;2.63;;;23.10;86.90;;;;;;5087547;29;20550;-61
2021/06/09 09:29:09;;;;;;;10.27;2.80;;;22.90;89.00;;;;;;5087306;29;20191;-60
2021/06/09 09:35:38;;;;;;;8.02;2.60;;;22.60;89.30;;;;;;5087703;29;20182;-58
2021/06/09 09:38:20;;;;;;;7.28;3.10;;;22.30;88.20;;;;;;5090593;29;20325;-64
2021/06/09 09:41:12;;;;;;;7.55;2.63;;;22.40;90.70;;;;;;5090224;29;20203;-76
2021/06/09 09:43:51;;;;;;;8.98;2.60;;;22.50;90.00;;;;;;5086866;29;20257;-68
2021/06/09 09:46:32;;;;;;;9.05;2.28;;;22.60;87.10;;;;;;5086883;29;20205;-66
2021/06/09 09:53:42;;;;;;;10.05;2.35;;;22.70;84.60;;;;;;5048357;29;20279;-58
2021/06/09 09:56:16;;;;;;;5.05;2.30;;;22.90;87.70;;;;;;5048443;29;20664;-65
2021/06/09 09:59:04;;;;;;;5.40;2.38;;;22.80;86.70;;;;;;5047867;29;20210;-63
2021/06/09 10:01:45;;;;;;;5.68;2.10;;;22.40;87.00;;;;;;5048311;29;20566;-62
2021/06/09 10:08:13;;;;;;;5.30;2.00;;;22.20;86.50;;;;;;5048057;29;20218;-62
2021/06/09 10:10:45;;;;;;;5.28;1.80;;;22.30;84.90;;;;;;5047943;29;20200;-63
2021/06/09 10:13:19;;;;;;;4.63;2.00;;;22.20;84.90;;;;;;5048092;29;20211;-63
2021/06/09 10:15:51;;;;;;;4.97;2.08;;;22.20;85.10;;;;;;5062237;29;20203;-63
2021/06/09 10:18:24;;;;;;;5.13;2.05;;;22.40;87.20;;;;;;5048197;29;20227;-66
2021/06/09 10:20:56;;;;;;;8.43;2.13;;;22.50;85.00;;;;;;5046899;29;20202;-64
2021/06/09 10:23:36;;;;;;;6.32;2.50;;;22.50;84.80;;;;;;5047865;29;20195;-65
2021/06/09 10:26:11;;;;;;;4.70;2.15;;;22.50;83.90;;;;;;5048124;29;20196;-66
2021/06/09 10:29:06;;;;;;;3.90;2.20;;;22.50;84.40;;;;;;5061260;29;20543;-65
2021/06/09 10:31:45;;;;;;;6.60;2.10;;;22.70;84.50;;;;;;5047771;29;20204;-63
2021/06/09 10:34:17;;;;;;;3.17;1.60;;;22.40;82.10;;;;;;5047742;29;20203;-65
2021/06/09 10:36:51;;;;;;;3.67;1.80;;;22.40;82.20;;;;;;5047817;29;20227;-62
2021/06/09 10:39:26;;;;;;;5.38;1.88;;;22.50;82.10;;;;;;5047856;29;20548;-57
2021/06/09 10:42:00;;;;;;;5.97;2.42;;;22.60;81.70;;;;;;5061847;29;20298;-56
2021/06/09 10:44:35;;;;;;;5.30;2.22;;;22.60;82.50;;;;;;5048022;29;20218;-60
2021/06/09 10:51:04;;;;;;;3.15;2.05;;;22.40;83.80;;;;;;5048585;29;20231;-68
2021/06/09 10:53:37;;;;;;;8.27;2.50;;;22.70;84.50;;;;;;5069392;29;20198;-71
2021/06/09 10:56:10;;;;;;;10.13;2.75;;;22.90;86.10;;;;;;5086365;29;20198;-73
2021/06/09 10:58:43;;;;;;;4.57;2.35;;;23.10;86.20;;;;;;5086184;29;20218;-72
2021/06/09 11:01:19;;;;;;;5.07;2.58;;;23.30;85.80;;;;;;5069621;29;20201;-69
2021/06/09 11:07:42;;;;;;;5.93;2.35;;;23.60;85.80;;;;;;5084752;29;20198;-68
2021/06/09 11:10:16;;;;;;;3.40;2.30;;;23.40;83.90;;;;;;5086386;29;20195;-67
2021/06/09 11:12:50;;;;;;;7.25;2.63;;;23.40;86.70;;;;;;5086651;29;20542;-56
2021/06/09 11:15:32;;;;;;;4.47;2.60;;;23.20;85.50;;;;;;5090135;29;20555;-67
2021/06/09 11:18:16;;;;;;;6.65;2.20;;;23.10;85.00;;;;;;5071656;29;20241;-66
2021/06/09 11:20:50;;;;;;;21.95;10.90;;;23.10;85.60;;;;;;5089837;29;20217;-67
2021/06/09 11:23:29;;;;;;;6.25;3.40;;;23.30;86.00;;;;;;5089481;29;20201;-60
2021/06/09 11:26:04;;;;;;;6.60;2.70;;;23.30;85.60;;;;;;5090000;29;20198;-58
2021/06/09 11:28:39;;;;;;;5.82;2.60;;;23.30;86.30;;;;;;5089770;29;20589;-55
2021/06/09 11:31:31;;;;;;;6.18;2.45;;;23.20;88.60;;;;;;5089296;29;20226;-62
2021/06/09 11:34:04;;;;;;;6.15;2.95;;;22.80;90.70;;;;;;5089174;29;20668;-58
2021/06/09 11:36:43;;;;;;;3.97;2.75;;;22.60;91.40;;;;;;5089275;29;20219;-62
2021/06/09 11:39:18;;;;;;;5.72;3.10;;;22.50;91.00;;;;;;5089063;29;20202;-62
2021/06/09 11:41:52;;;;;;;3.78;2.58;;;22.30;91.40;;;;;;5089264;29;20189;-64
2021/06/09 11:44:42;;;;;;;3.75;2.58;;;22.20;91.90;;;;;;5089537;29;20280;-57
2021/06/09 11:51:15;;;;;;;5.70;3.05;;;22.20;92.50;;;;;;5088985;29;20256;-55
2021/06/09 11:53:53;;;;;;;7.85;3.03;;;22.10;92.80;;;;;;5072447;29;20584;-58
2021/06/09 11:56:42;;;;;;;7.95;3.38;;;21.80;93.20;;;;;;5072116;29;20202;-60
2021/06/09 11:59:35;;;;;;;3.20;2.85;;;21.90;94.10;;;;;;5089028;29;20206;-60
2021/06/09 12:02:09;;;;;;;6.40;3.53;;;22.00;93.90;;;;;;5088777;29;20198;-59
2021/06/09 12:08:28;;;;;;;4.68;3.10;;;22.20;94.40;;;;;;5089038;29;20181;-65
2021/06/09 12:11:00;;;;;;;5.50;3.22;;;22.30;95.10;;;;;;5088884;29;20578;-55
2021/06/09 12:13:32;;;;;;;7.20;2.88;;;22.20;94.70;;;;;;5088425;29;20202;-52
2021/06/09 12:16:16;;;;;;;4.78;3.38;;;22.20;95.20;;;;;;5088420;29;20229;-56
2021/06/09 12:18:49;;;;;;;7.63;3.25;;;22.20;94.90;;;;;;5088266;29;20313;-54
2021/06/09 12:21:21;;;;;;;6.10;2.83;;;22.20;94.80;;;;;;5086762;29;20195;-45
2021/06/09 12:23:56;;;;;;;8.27;3.28;;;22.10;94.70;;;;;;5087550;29;20205;-52
2021/06/09 12:26:28;;;;;;;5.40;3.03;;;22.00;95.40;;;;;;5088224;29;20640;-49
2021/06/09 12:29:05;;;;;;;4.95;3.15;;;22.00;95.30;;;;;;5071912;29;20210;-50
2021/06/09 12:31:38;;;;;;;4.85;3.20;;;22.00;95.30;;;;;;5088490;29;20630;-54
2021/06/09 12:34:21;;;;;;;5.20;2.88;;;22.10;95.50;;;;;;5088028;29;20241;-53
2021/06/09 12:36:57;;;;;;;4.72;3.40;;;22.10;95.10;;;;;;5088538;29;20576;-50
2021/06/09 12:39:29;;;;;;;9.32;3.10;;;22.10;95.30;;;;;;5088551;29;20615;-51
2021/06/09 12:42:12;;;;;;;6.78;3.00;;;22.10;95.40;;;;;;5088242;29;20273;-50
2021/06/09 12:45:26;;;;;;;4.13;3.05;;;22.10;96.10;;;;;;5088339;29;20220;-49
2021/06/09 12:52:04;;;;;;;6.10;3.60;;;22.10;95.80;;;;;;5087814;29;20242;-51
2021/06/09 12:54:53;;;;;;;10.45;3.58;;;22.10;96.50;;;;;;5087073;29;20709;-48
2021/06/09 12:57:35;;;;;;;6.93;3.28;;;22.10;96.90;;;;;;5087914;29;20242;-50
2021/06/09 13:00:54;;;;;;;5.85;3.60;;;22.00;97.10;;;;;;5079535;29;20198;-45
2021/06/09 13:07:11;;;;;;;4.93;3.65;;;22.00;97.30;;;;;;5008360;29;20596;-52
2021/06/09 13:09:59;;;;;;;8.55;3.80;;;22.00;97.50;;;;;;4933522;30;20215;-49
2021/06/09 13:12:30;;;;;;;6.00;3.80;;;22.10;98.20;;;;;;4933192;30;20199;-60
2021/06/09 13:15:03;;;;;;;5.72;4.00;;;22.20;98.10;;;;;;4933550;30;20227;-57
2021/06/09 13:22:05;;;;;;;7.70;4.10;;;22.10;99.40;;;;;;4933206;30;20700;-48
2021/06/09 13:24:38;;;;;;;7.38;3.92;;;22.10;99.90;;;;;;4932551;30;20227;-55
2021/06/09 13:27:11;;;;;;;8.05;4.03;;;21.90;99.90;;;;;;4933131;30;20312;-50
2021/06/09 13:29:54;;;;;;;5.95;3.88;;;21.80;99.90;;;;;;4933139;30;20248;-56
2021/06/09 13:32:32;;;;;;;5.65;3.95;;;21.60;99.90;;;;;;4933032;30;20264;-60
2021/06/09 13:38:50;;;;;;;6.43;4.07;;;21.80;99.90;;;;;;5007918;29;20300;-50
2021/06/09 13:41:22;;;;;;;5.85;3.85;;;21.80;99.90;;;;;;5036069;29;20216;-55
2021/06/09 13:43:57;;;;;;;8.38;4.20;;;21.80;99.90;;;;;;5030803;29;20211;-59
2021/06/09 13:46:50;;;;;;;6.07;3.85;;;21.80;99.90;;;;;;5046061;29;20211;-55
2021/06/09 13:49:32;;;;;;;6.38;4.13;;;21.90;99.90;;;;;;5045759;29;20196;-58
2021/06/09 13:52:09;;;;;;;6.22;4.32;;;22.00;99.90;;;;;;5075704;29;20259;-56
2021/06/09 13:55:20;;;;;;;7.13;4.38;;;22.00;99.90;;;;;;5086589;29;20206;-53
2021/06/09 13:57:53;;;;;;;7.57;4.30;;;21.80;99.90;;;;;;5086854;29;20248;-52
2021/06/09 14:00:35;;;;;;;7.30;4.55;;;22.00;99.90;;;;;;5086160;29;20721;-59
2021/06/09 14:07:02;;;;;;;7.40;4.22;;;22.00;99.90;;;;;;5086382;29;20221;-55
2021/06/09 14:09:34;;;;;;;5.80;4.45;;;21.70;99.90;;;;;;5084970;29;20571;-51
2021/06/09 14:12:10;;;;;;;8.98;4.72;;;21.50;99.90;;;;;;5086366;29;20199;-65
2021/06/09 14:14:42;;;;;;;9.70;4.90;;;21.40;99.90;;;;;;5086659;29;20197;-65
2021/06/09 14:17:16;;;;;;;7.03;4.38;;;21.30;99.90;;;;;;5086132;29;20218;-66
2021/06/09 14:23:40;;;;;;;9.45;5.13;;;21.30;99.90;;;;;;5086398;29;20577;-66